Csl Tarantau — C6CL9 — position and weather

sailwx.info

Track history (hours):
 
Tides and Currents Weather Stations Pressure Air Temp Water Temp Dewpoint Dewpoint Depression Visibility Wind Speed Wind Dir Waves Ship Positions

Csl Tarantau

Last reported at 2017-Sep-27 23:15 UTC. Time now 2017-Oct-18 06:09 UTC.
Position N 20°38' W 086°58'.
Warning: this ship's position is 20 days out of date.

Length 220 m; draft 12 m.

Type: Ship. MMSI: 311000508.

Date/timePositionNaut miles runAvg speedWind from/ knotsBaromVisibWave heightAir tempDewpointWater temp
2017-Sep-27 23:15N 20°38' W 086°58'413.8
2017-Sep-27 22:59N 20°36' W 087°02'3 0.1
2017-Sep-27 01:59N 20°36' W 087°04'1 0.8
2017-Sep-27 01:12N 20°36' W 087°04'0 2.3
2017-Sep-27 00:59N 20°36' W 087°03'3 5.0
2017-Sep-27 00:20N 20°38' W 087°00'  
2017-Sep-24 18:59N 25°27' W 079°35'611.6
2017-Sep-24 18:30N 25°33' W 079°34'611.5
2017-Sep-24 18:00N 25°38' W 079°34'611.1
2017-Sep-24 17:28N 25°44' W 079°32'511.4
2017-Sep-24 17:00N 25°50' W 079°32'611.1
2017-Sep-24 16:30N 25°55' W 079°32'611.1
2017-Sep-24 15:58N 26°01' W 079°31'511.1
2017-Sep-24 15:29N 26°06' W 079°30'611.4
2017-Sep-24 15:00N 26°12' W 079°30'611.6
2017-Sep-24 14:30N 26°18' W 079°29'611.7
2017-Sep-24 13:58N 26°24' W 079°28'  
2017-Sep-21 04:24N 26°13' W 079°29'513.5
2017-Sep-21 04:00N 26°08' W 079°30'913.4
2017-Sep-21 03:21N 25°59' W 079°31'513.3
2017-Sep-21 03:00N 25°54' W 079°32'613.2
2017-Sep-21 02:30N 25°48' W 079°33'813.0
2017-Sep-21 01:54N 25°40' W 079°34'513.1
2017-Sep-21 01:31N 25°35' W 079°34'713.2
2017-Sep-21 01:01N 25°29' W 079°35'  
Track history (hours):
 
Tides and Currents Weather Stations Pressure Air Temp Water Temp Dewpoint Dewpoint Depression Visibility Wind Speed Wind Dir Waves Ship Positions

Csl Tarantau

Last reported at 2017-Sep-27 23:15 UTC. Time now 2017-Oct-18 06:09 UTC.
Position N 20°38' W 086°58'.
Warning: this ship's position is 20 days out of date.

Length 220 m; draft 12 m.

Type: Ship. MMSI: 311000508.

Date/timePositionNaut miles runAvg speedWind from/ knotsBaromVisibWave heightAir tempDewpointWater temp
2017-Sep-27 23:15N 20°38' W 086°58'413.8
2017-Sep-27 22:59N 20°36' W 087°02'3 0.1
2017-Sep-27 01:59N 20°36' W 087°04'1 0.8
2017-Sep-27 01:12N 20°36' W 087°04'0 2.3
2017-Sep-27 00:59N 20°36' W 087°03'3 5.0
2017-Sep-27 00:20N 20°38' W 087°00'  
2017-Sep-24 18:59N 25°27' W 079°35'611.6
2017-Sep-24 18:30N 25°33' W 079°34'611.5
2017-Sep-24 18:00N 25°38' W 079°34'611.1
2017-Sep-24 17:28N 25°44' W 079°32'511.4
2017-Sep-24 17:00N 25°50' W 079°32'611.1
2017-Sep-24 16:30N 25°55' W 079°32'611.1
2017-Sep-24 15:58N 26°01' W 079°31'511.1
2017-Sep-24 15:29N 26°06' W 079°30'611.4
2017-Sep-24 15:00N 26°12' W 079°30'611.6
2017-Sep-24 14:30N 26°18' W 079°29'611.7
2017-Sep-24 13:58N 26°24' W 079°28'  
2017-Sep-21 04:24N 26°13' W 079°29'513.5
2017-Sep-21 04:00N 26°08' W 079°30'913.4
2017-Sep-21 03:21N 25°59' W 079°31'513.3
2017-Sep-21 03:00N 25°54' W 079°32'613.2
2017-Sep-21 02:30N 25°48' W 079°33'813.0
2017-Sep-21 01:54N 25°40' W 079°34'513.1
2017-Sep-21 01:31N 25°35' W 079°34'713.2
2017-Sep-21 01:01N 25°29' W 079°35'  

Dump ship's entire track history